Time;durP1;ratioP1;P1;durP2;ratioP2;P2;SDS_P1;SDS_P2;PMS_P1;PMS_P2;Temp;Humidity;BMP_temperature;BMP_pressure;BME280_temperature;BME280_humidity;BME280_pressure;Samples;Min_cycle;Max_cycle;Signal;HPM_P1;HPM_P2
2024/01/02 00:01:24;;;;;;;22.10;4.68;;;5.00;99.90;;;;;;5096337;28;20032;-42
2024/01/02 00:03:49;;;;;;;16.15;3.83;;;5.00;99.90;;;;;;5094331;28;20027;-42
2024/01/02 00:06:15;;;;;;;24.40;4.63;;;5.00;99.90;;;;;;5096789;28;20069;-43
2024/01/02 00:08:42;;;;;;;17.25;4.60;;;4.90;99.90;;;;;;5094506;28;20027;-42
2024/01/02 00:11:09;;;;;;;20.92;4.72;;;5.00;99.90;;;;;;5096814;28;20028;-41
2024/01/02 00:13:35;;;;;;;17.40;5.53;;;5.00;99.90;;;;;;5094717;28;20023;-42
2024/01/02 00:16:00;;;;;;;25.95;4.57;;;4.90;99.90;;;;;;5094589;28;20078;-42
2024/01/02 00:18:26;;;;;;;17.40;5.00;;;5.00;99.90;;;;;;5094533;28;20366;-45
2024/01/02 00:20:51;;;;;;;13.73;3.55;;;5.00;99.90;;;;;;5094711;28;20513;-46
2024/01/02 00:23:17;;;;;;;21.52;4.38;;;5.00;99.90;;;;;;5097133;28;20034;-42
2024/01/02 00:25:43;;;;;;;19.80;4.10;;;5.00;99.90;;;;;;5094682;28;20024;-45
2024/01/02 00:28:12;;;;;;;18.92;4.32;;;4.90;99.90;;;;;;5096101;28;20477;-44
2024/01/02 00:30:39;;;;;;;18.35;4.10;;;4.90;99.90;;;;;;5094862;28;20028;-43
2024/01/02 00:33:05;;;;;;;22.80;6.85;;;5.00;99.90;;;;;;5096432;28;20016;-43
2024/01/02 00:35:31;;;;;;;14.43;3.47;;;4.90;99.90;;;;;;5077246;28;20788;-43
2024/01/02 00:37:57;;;;;;;18.95;4.20;;;4.90;99.90;;;;;;5094467;28;20058;-43
2024/01/02 00:40:22;;;;;;;18.75;3.65;;;4.90;99.90;;;;;;5096901;28;20028;-44
2024/01/02 00:42:48;;;;;;;18.80;3.92;;;4.90;99.90;;;;;;5094023;28;20044;-44
2024/01/02 00:45:14;;;;;;;19.85;3.95;;;4.90;99.90;;;;;;5097412;28;20030;-44
2024/01/02 00:47:40;;;;;;;18.40;3.90;;;4.90;99.90;;;;;;5094487;28;20020;-42
2024/01/02 00:50:06;;;;;;;23.20;5.80;;;4.90;99.90;;;;;;5096451;28;20145;-42
2024/01/02 00:52:32;;;;;;;19.92;4.22;;;4.90;99.90;;;;;;5095701;28;20055;-42
2024/01/02 00:54:57;;;;;;;18.02;3.75;;;4.90;99.90;;;;;;5095077;28;20508;-43
2024/01/02 00:57:23;;;;;;;19.95;3.40;;;4.90;99.90;;;;;;5078072;28;20027;-42
2024/01/02 00:59:48;;;;;;;16.30;3.70;;;4.90;99.90;;;;;;5094704;28;20107;-42
2024/01/02 01:02:14;;;;;;;17.80;4.15;;;4.90;99.90;;;;;;5097635;28;20058;-42
2024/01/02 01:04:43;;;;;;;13.40;3.10;;;4.90;99.90;;;;;;5094600;28;20513;-43
2024/01/02 01:07:10;;;;;;;24.15;4.07;;;4.90;99.90;;;;;;5096786;28;20073;-43
2024/01/02 01:09:35;;;;;;;24.50;4.18;;;4.90;99.90;;;;;;5076970;28;20470;-42
2024/01/02 01:12:03;;;;;;;15.45;3.88;;;4.90;99.90;;;;;;5095746;28;20095;-42
2024/01/02 01:14:28;;;;;;;29.48;3.75;;;5.00;99.90;;;;;;5093739;28;20020;-43
2024/01/02 01:16:54;;;;;;;18.63;3.55;;;5.00;99.90;;;;;;5094944;28;20546;-42
2024/01/02 01:19:19;;;;;;;16.17;4.05;;;5.00;99.90;;;;;;5094435;28;20024;-42
2024/01/02 01:21:45;;;;;;;19.83;4.65;;;5.00;99.90;;;;;;5095013;28;20016;-43
2024/01/02 01:24:10;;;;;;;22.98;4.25;;;5.00;99.90;;;;;;5097502;28;20016;-43
2024/01/02 01:26:36;;;;;;;15.32;4.07;;;5.10;99.90;;;;;;5095430;28;20032;-43
2024/01/02 01:29:02;;;;;;;13.65;3.78;;;5.10;99.90;;;;;;5095510;28;20028;-43
2024/01/02 01:31:28;;;;;;;14.75;3.28;;;5.10;99.90;;;;;;5096626;28;20024;-41
2024/01/02 01:33:54;;;;;;;14.75;3.38;;;5.10;99.90;;;;;;5094972;28;20084;-42
2024/01/02 01:36:20;;;;;;;14.55;3.90;;;5.10;99.90;;;;;;5097922;28;20038;-42
2024/01/02 01:38:45;;;;;;;18.88;3.30;;;5.10;99.90;;;;;;5094596;28;20066;-43
2024/01/02 01:41:11;;;;;;;19.42;3.72;;;5.10;99.90;;;;;;5097666;28;20081;-42
2024/01/02 01:43:37;;;;;;;22.58;3.42;;;5.10;99.90;;;;;;5096089;28;20042;-42
2024/01/02 01:46:04;;;;;;;15.45;3.63;;;5.10;99.90;;;;;;5095207;28;20031;-42
2024/01/02 01:48:30;;;;;;;16.40;3.40;;;5.10;99.90;;;;;;5094758;28;20024;-43
2024/01/02 01:50:56;;;;;;;13.13;3.17;;;5.10;99.90;;;;;;5095469;28;20016;-44
2024/01/02 01:53:22;;;;;;;25.60;3.42;;;5.10;99.90;;;;;;5080574;28;20111;-42
2024/01/02 01:55:48;;;;;;;17.42;3.42;;;5.10;99.90;;;;;;5099380;28;20027;-42
2024/01/02 01:58:15;;;;;;;20.90;4.30;;;5.10;99.90;;;;;;5101889;28;20027;-44
2024/01/02 02:00:40;;;;;;;17.42;5.15;;;5.10;99.90;;;;;;5099736;28;20134;-43
2024/01/02 02:03:07;;;;;;;14.27;3.65;;;5.10;99.90;;;;;;5100914;28;20094;-42
2024/01/02 02:05:34;;;;;;;15.52;3.78;;;5.10;99.90;;;;;;5100876;28;20497;-43
2024/01/02 02:08:00;;;;;;;13.88;3.10;;;5.10;99.90;;;;;;5081300;28;20055;-43
2024/01/02 02:10:25;;;;;;;11.65;3.15;;;5.10;99.90;;;;;;5101760;28;20065;-45
2024/01/02 02:12:52;;;;;;;19.75;4.10;;;5.10;99.90;;;;;;5099341;28;20043;-44
2024/01/02 02:15:18;;;;;;;9.35;2.97;;;5.10;99.90;;;;;;5102629;28;20415;-43
2024/01/02 02:17:43;;;;;;;9.43;2.70;;;5.10;99.90;;;;;;5098970;28;20027;-42
2024/01/02 02:20:09;;;;;;;19.73;3.15;;;5.10;99.90;;;;;;5101501;28;20087;-44
2024/01/02 02:22:37;;;;;;;13.95;2.92;;;5.10;99.90;;;;;;5100641;28;20031;-44
2024/01/02 02:25:05;;;;;;;11.25;3.08;;;5.10;99.90;;;;;;5100366;28;20466;-43
2024/01/02 02:27:31;;;;;;;22.88;4.13;;;5.10;99.90;;;;;;5100970;28;20031;-44
2024/01/02 02:29:57;;;;;;;16.38;3.30;;;5.10;99.90;;;;;;5100292;28;20056;-44
2024/01/02 02:32:22;;;;;;;15.25;3.30;;;5.10;99.90;;;;;;5103024;28;20495;-43
2024/01/02 02:34:48;;;;;;;13.48;3.10;;;5.10;99.90;;;;;;5099636;28;20024;-43
2024/01/02 02:37:14;;;;;;;8.93;2.58;;;5.10;99.90;;;;;;5095105;28;20074;-43
2024/01/02 02:39:40;;;;;;;13.57;3.08;;;5.10;99.90;;;;;;5095140;28;20487;-43
2024/01/02 02:42:05;;;;;;;18.08;3.45;;;5.10;99.90;;;;;;5101089;28;20020;-45
2024/01/02 02:44:31;;;;;;;16.98;3.35;;;5.10;99.90;;;;;;5102107;28;20100;-44
2024/01/02 02:46:57;;;;;;;21.05;3.78;;;5.10;99.90;;;;;;5100517;28;20020;-42
2024/01/02 02:49:23;;;;;;;10.85;3.22;;;5.10;99.90;;;;;;5103018;28;20358;-43
2024/01/02 02:51:49;;;;;;;10.32;2.75;;;5.10;99.90;;;;;;5099832;28;20089;-41
2024/01/02 02:54:15;;;;;;;13.48;2.80;;;5.10;99.90;;;;;;5102271;28;20040;-42
2024/01/02 02:56:43;;;;;;;18.15;3.72;;;5.10;99.90;;;;;;5100422;28;20099;-42
2024/01/02 02:59:09;;;;;;;11.35;2.83;;;5.10;99.90;;;;;;5101287;28;20024;-43
2024/01/02 03:01:35;;;;;;;12.55;3.45;;;5.10;99.90;;;;;;5101467;28;20015;-43
2024/01/02 03:04:01;;;;;;;13.13;2.95;;;5.10;99.90;;;;;;5100631;28;20031;-42
2024/01/02 03:06:26;;;;;;;15.45;3.28;;;5.10;99.90;;;;;;5102357;28;20030;-43
2024/01/02 03:08:52;;;;;;;13.63;2.85;;;5.10;99.90;;;;;;5099263;28;20028;-43
2024/01/02 03:11:18;;;;;;;11.68;2.67;;;5.10;99.90;;;;;;5101516;28;20060;-42
2024/01/02 03:13:44;;;;;;;16.27;3.22;;;5.10;99.90;;;;;;5100075;28;20023;-43
2024/01/02 03:16:10;;;;;;;12.90;3.42;;;5.00;99.90;;;;;;5100925;28;20563;-43
2024/01/02 03:18:36;;;;;;;9.95;2.40;;;5.10;99.90;;;;;;5100382;28;20024;-44
2024/01/02 03:21:01;;;;;;;13.77;2.55;;;5.10;99.90;;;;;;5099731;28;20023;-43
2024/01/02 03:23:27;;;;;;;15.63;3.67;;;5.10;99.90;;;;;;5102236;27;20480;-42
2024/01/02 03:25:53;;;;;;;12.15;2.42;;;5.10;99.90;;;;;;5097973;28;20035;-43
2024/01/02 03:28:18;;;;;;;17.20;3.25;;;5.10;99.90;;;;;;5101599;28;20104;-42
2024/01/02 03:30:45;;;;;;;9.55;2.53;;;5.10;99.90;;;;;;5099673;28;20110;-45
2024/01/02 03:33:10;;;;;;;9.50;2.72;;;5.10;99.90;;;;;;5100801;28;20017;-42
2024/01/02 03:35:36;;;;;;;12.30;2.38;;;5.10;99.90;;;;;;5100614;28;20031;-43
2024/01/02 03:38:02;;;;;;;28.08;3.90;;;5.10;99.90;;;;;;5097965;28;20032;-43
2024/01/02 03:40:28;;;;;;;18.90;3.58;;;5.10;99.90;;;;;;5098856;28;20111;-43
2024/01/02 03:42:53;;;;;;;16.75;3.05;;;5.10;99.90;;;;;;5099068;28;20088;-45
2024/01/02 03:45:19;;;;;;;16.88;3.45;;;5.20;99.90;;;;;;5102348;28;20524;-42
2024/01/02 03:47:45;;;;;;;10.80;2.78;;;5.20;99.90;;;;;;5099763;28;20020;-44
2024/01/02 03:50:10;;;;;;;11.30;3.05;;;5.20;99.90;;;;;;5099613;28;20023;-44
2024/01/02 03:52:36;;;;;;;13.68;3.08;;;5.20;99.90;;;;;;5099627;28;20034;-45
2024/01/02 03:55:02;;;;;;;13.27;3.28;;;5.20;99.90;;;;;;5095163;28;20028;-44
2024/01/02 03:57:27;;;;;;;18.65;7.45;;;5.20;99.90;;;;;;5101580;28;20024;-44
2024/01/02 03:59:53;;;;;;;12.82;4.07;;;5.20;99.90;;;;;;5097273;28;20134;-42
2024/01/02 04:02:19;;;;;;;13.75;3.17;;;5.20;99.90;;;;;;5101925;28;20022;-45
2024/01/02 04:04:45;;;;;;;10.90;2.50;;;5.30;99.90;;;;;;5099507;28;20333;-44
2024/01/02 04:07:10;;;;;;;18.63;3.35;;;5.30;99.90;;;;;;5100853;28;20016;-42
2024/01/02 04:09:36;;;;;;;10.40;2.78;;;5.30;99.90;;;;;;5100870;28;20035;-44
2024/01/02 04:12:02;;;;;;;15.35;3.35;;;5.30;99.90;;;;;;5099519;28;20024;-43
2024/01/02 04:14:28;;;;;;;12.80;2.97;;;5.30;99.90;;;;;;5101329;28;20028;-44
2024/01/02 04:16:53;;;;;;;16.33;4.05;;;5.30;99.90;;;;;;5097388;28;20016;-43
2024/01/02 04:19:21;;;;;;;21.52;3.70;;;5.30;99.90;;;;;;5094376;28;20085;-43
2024/01/02 04:21:47;;;;;;;20.50;4.25;;;5.40;99.90;;;;;;5091908;28;20029;-44
2024/01/02 04:24:14;;;;;;;16.63;3.63;;;5.30;99.90;;;;;;5093367;28;20131;-42
2024/01/02 04:26:39;;;;;;;18.70;3.50;;;5.40;99.90;;;;;;5098539;28;20028;-44
2024/01/02 04:29:05;;;;;;;14.60;4.00;;;5.40;99.90;;;;;;5100347;28;20024;-46
2024/01/02 04:31:31;;;;;;;8.32;3.13;;;5.40;99.90;;;;;;5102052;28;20443;-43
2024/01/02 04:33:56;;;;;;;17.80;3.60;;;5.40;99.90;;;;;;5098970;28;20020;-44
2024/01/02 04:36:25;;;;;;;10.73;3.42;;;5.40;99.90;;;;;;5101909;28;20080;-43
2024/01/02 04:38:51;;;;;;;20.90;3.40;;;5.50;99.90;;;;;;5098806;28;20060;-43
2024/01/02 04:41:18;;;;;;;12.43;2.80;;;5.40;99.90;;;;;;5100998;28;20062;-45
2024/01/02 04:43:44;;;;;;;15.15;4.32;;;5.40;99.90;;;;;;5099655;28;20497;-44
2024/01/02 04:46:10;;;;;;;12.50;2.95;;;5.50;99.90;;;;;;5100689;28;20012;-43
2024/01/02 04:48:35;;;;;;;13.32;2.88;;;5.50;99.90;;;;;;5101284;28;20027;-44
2024/01/02 04:51:02;;;;;;;13.38;3.45;;;5.50;99.90;;;;;;5099665;28;20097;-43
2024/01/02 04:53:28;;;;;;;13.55;3.00;;;5.50;99.90;;;;;;5102241;28;20023;-42
2024/01/02 04:55:54;;;;;;;13.93;2.95;;;5.50;99.90;;;;;;5099017;28;20028;-43
2024/01/02 04:58:20;;;;;;;16.17;3.60;;;5.50;99.90;;;;;;5101863;28;20484;-42
2024/01/02 05:00:45;;;;;;;14.20;2.97;;;5.60;99.90;;;;;;5100644;28;20400;-42
2024/01/02 05:03:11;;;;;;;15.48;3.28;;;5.60;99.90;;;;;;5101103;28;20095;-43
2024/01/02 05:05:37;;;;;;;8.43;2.20;;;5.60;99.90;;;;;;5101789;28;20635;-45
2024/01/02 05:08:03;;;;;;;12.88;3.25;;;5.60;99.90;;;;;;5099729;28;20028;-43
2024/01/02 05:10:29;;;;;;;10.05;2.38;;;5.60;99.90;;;;;;5102758;28;20039;-42
2024/01/02 05:12:54;;;;;;;11.38;2.60;;;5.60;99.90;;;;;;5099221;28;20024;-42
2024/01/02 05:15:20;;;;;;;10.85;2.53;;;5.60;99.90;;;;;;5102773;28;20059;-45
2024/01/02 05:17:46;;;;;;;8.45;2.00;;;5.60;99.90;;;;;;5098313;28;20054;-42
2024/01/02 05:20:12;;;;;;;18.50;2.55;;;5.50;99.90;;;;;;5101552;28;20024;-45
2024/01/02 05:22:38;;;;;;;13.68;2.45;;;5.50;99.90;;;;;;5101858;28;20026;-45
2024/01/02 05:25:04;;;;;;;13.50;4.50;;;5.60;99.90;;;;;;5100010;28;20591;-45
2024/01/02 05:27:29;;;;;;;14.55;2.97;;;5.50;99.90;;;;;;5102130;28;20202;-46
2024/01/02 05:29:55;;;;;;;11.20;4.05;;;5.50;99.90;;;;;;5102252;28;20270;-42
2024/01/02 05:32:20;;;;;;;13.15;2.65;;;5.50;99.90;;;;;;5102988;28;20031;-44
2024/01/02 05:34:46;;;;;;;14.30;3.15;;;5.50;99.90;;;;;;5100721;28;20534;-43
2024/01/02 05:37:12;;;;;;;15.38;2.63;;;5.50;99.90;;;;;;5101095;28;20032;-42
2024/01/02 05:39:38;;;;;;;5.22;2.08;;;5.50;99.90;;;;;;5100947;28;20047;-42
2024/01/02 05:42:04;;;;;;;13.82;3.67;;;5.50;99.90;;;;;;5100340;28;20073;-42
2024/01/02 05:44:30;;;;;;;7.13;2.33;;;5.50;99.90;;;;;;5101212;28;20038;-43
2024/01/02 05:46:55;;;;;;;7.35;2.53;;;5.50;99.90;;;;;;5099652;28;20028;-44
2024/01/02 05:49:21;;;;;;;12.02;2.50;;;5.50;99.90;;;;;;5102316;28;20529;-42
2024/01/02 05:51:47;;;;;;;10.35;2.22;;;5.50;99.90;;;;;;5099980;28;20031;-45
2024/01/02 05:54:12;;;;;;;11.07;2.83;;;5.40;99.90;;;;;;5101726;28;20020;-44
2024/01/02 05:56:38;;;;;;;15.68;2.95;;;5.50;99.90;;;;;;5102409;28;20096;-46
2024/01/02 05:59:03;;;;;;;5.88;2.20;;;5.50;99.90;;;;;;5100645;28;20028;-43
2024/01/02 06:01:29;;;;;;;12.02;2.70;;;5.50;99.90;;;;;;5097136;28;20055;-43
2024/01/02 06:03:54;;;;;;;13.90;2.95;;;5.40;99.90;;;;;;5099004;28;20131;-42
2024/01/02 06:06:20;;;;;;;10.68;2.63;;;5.50;99.90;;;;;;5102686;28;20089;-44
2024/01/02 06:08:46;;;;;;;7.85;2.80;;;5.50;99.90;;;;;;5101553;28;20024;-45
2024/01/02 06:11:12;;;;;;;5.68;1.83;;;5.50;99.90;;;;;;5102119;28;20024;-45
2024/01/02 06:13:38;;;;;;;10.63;2.45;;;5.50;99.90;;;;;;5102835;28;20386;-45
2024/01/02 06:16:04;;;;;;;14.50;2.30;;;5.50;99.90;;;;;;5100442;28;20032;-44
2024/01/02 06:18:29;;;;;;;9.20;2.22;;;5.50;99.90;;;;;;5099138;28;20024;-43
2024/01/02 06:20:55;;;;;;;12.38;2.58;;;5.50;99.90;;;;;;5091914;28;20021;-43
2024/01/02 06:23:21;;;;;;;11.32;2.83;;;5.50;99.90;;;;;;5095821;28;20419;-47
2024/01/02 06:25:46;;;;;;;8.63;2.55;;;5.50;99.90;;;;;;5101635;28;20028;-43
2024/01/02 06:28:12;;;;;;;9.57;2.88;;;5.50;99.90;;;;;;5101693;28;20062;-43
2024/01/02 06:30:38;;;;;;;10.30;2.17;;;5.50;99.90;;;;;;5102806;28;20020;-46
2024/01/02 06:33:04;;;;;;;8.23;2.10;;;5.50;99.90;;;;;;5101009;28;20550;-43
2024/01/02 06:35:29;;;;;;;11.07;2.33;;;5.50;99.90;;;;;;5103186;28;20078;-44
2024/01/02 06:37:55;;;;;;;10.95;2.63;;;5.50;99.90;;;;;;5098851;28;20114;-49
2024/01/02 06:40:20;;;;;;;10.10;2.47;;;5.50;99.90;;;;;;5104132;28;20024;-40
2024/01/02 06:42:46;;;;;;;8.60;3.22;;;5.40;99.90;;;;;;5105973;28;20019;-41
2024/01/02 06:45:11;;;;;;;17.20;2.88;;;5.40;99.90;;;;;;5105980;28;20264;-40
2024/01/02 06:47:37;;;;;;;11.73;3.20;;;5.40;99.90;;;;;;5094415;28;20127;-41
2024/01/02 06:50:03;;;;;;;11.13;2.60;;;5.40;99.90;;;;;;5089785;28;20258;-43
2024/01/02 06:52:29;;;;;;;11.85;2.90;;;5.40;99.90;;;;;;5092415;28;20089;-42
2024/01/02 06:54:54;;;;;;;7.55;2.63;;;5.40;99.90;;;;;;5089764;28;20402;-45
2024/01/02 06:57:22;;;;;;;10.80;3.05;;;5.40;99.90;;;;;;5088027;28;20040;-42
2024/01/02 06:59:48;;;;;;;13.00;3.10;;;5.30;99.90;;;;;;5085890;28;20088;-42
2024/01/02 07:02:14;;;;;;;14.70;3.13;;;5.30;99.90;;;;;;5090198;28;20020;-43
2024/01/02 07:04:39;;;;;;;16.38;4.03;;;5.30;99.90;;;;;;5089654;28;20035;-42
2024/01/02 07:07:09;;;;;;;12.73;2.97;;;5.30;99.90;;;;;;5090325;28;20013;-42
2024/01/02 07:09:34;;;;;;;12.68;3.15;;;5.20;99.90;;;;;;5088022;28;20351;-44
2024/01/02 07:12:00;;;;;;;12.00;2.97;;;5.20;99.90;;;;;;5086834;28;20254;-43
2024/01/02 07:14:25;;;;;;;3.85;2.15;;;5.20;99.90;;;;;;5086365;28;20040;-43
2024/01/02 07:16:51;;;;;;;11.85;3.22;;;5.20;99.90;;;;;;5088911;28;20016;-42
2024/01/02 07:19:17;;;;;;;14.18;3.47;;;5.10;99.90;;;;;;5088798;28;20393;-43
2024/01/02 07:21:42;;;;;;;18.13;3.53;;;5.10;99.90;;;;;;5089273;28;20020;-45
2024/01/02 07:24:08;;;;;;;12.50;3.65;;;5.10;99.90;;;;;;5089090;28;20113;-43
2024/01/02 07:26:33;;;;;;;16.25;3.33;;;5.10;99.90;;;;;;5089189;28;20036;-45
2024/01/02 07:28:59;;;;;;;17.25;2.75;;;5.00;99.90;;;;;;5096893;28;20028;-43
2024/01/02 07:31:26;;;;;;;9.70;2.70;;;5.10;99.90;;;;;;5106305;28;20051;-45
2024/01/02 07:33:51;;;;;;;9.40;3.25;;;5.10;99.90;;;;;;5091777;28;20019;-46
2024/01/02 07:36:18;;;;;;;9.55;3.38;;;5.10;99.90;;;;;;5105664;28;20062;-43
2024/01/02 07:38:43;;;;;;;9.98;3.55;;;5.10;99.90;;;;;;5095521;28;20394;-43
2024/01/02 07:41:09;;;;;;;16.73;3.75;;;5.00;99.90;;;;;;5089423;28;20031;-46
2024/01/02 07:43:34;;;;;;;12.98;3.20;;;5.00;99.90;;;;;;5089224;28;20077;-42
2024/01/02 07:46:03;;;;;;;12.63;3.20;;;5.00;99.90;;;;;;5087638;28;20469;-45
2024/01/02 07:48:30;;;;;;;18.92;4.13;;;5.00;99.90;;;;;;5089024;28;20451;-45
2024/01/02 07:50:56;;;;;;;9.38;3.20;;;5.00;99.90;;;;;;5089019;28;20103;-43
2024/01/02 07:53:22;;;;;;;18.02;3.40;;;5.00;99.90;;;;;;5089130;28;20124;-43
2024/01/02 07:55:48;;;;;;;15.45;3.25;;;5.00;99.90;;;;;;5087530;28;20146;-44
2024/01/02 07:58:14;;;;;;;9.82;4.43;;;5.00;99.90;;;;;;5088616;28;20107;-44
2024/01/02 08:00:40;;;;;;;8.35;3.55;;;5.00;99.90;;;;;;5089065;28;20459;-42
2024/01/02 08:03:05;;;;;;;9.23;3.22;;;5.00;99.90;;;;;;5088965;28;21694;-43
2024/01/02 08:05:31;;;;;;;5.78;2.78;;;5.00;99.90;;;;;;5089344;28;20109;-43
2024/01/02 08:07:57;;;;;;;16.38;3.72;;;5.00;99.90;;;;;;5088364;28;20432;-43
2024/01/02 08:10:22;;;;;;;10.13;2.67;;;5.00;99.90;;;;;;5087688;28;20020;-43
2024/01/02 08:12:48;;;;;;;9.95;2.95;;;5.00;99.90;;;;;;5088767;28;20081;-43
2024/01/02 08:15:14;;;;;;;9.98;3.20;;;5.00;99.90;;;;;;5089170;28;20411;-43
2024/01/02 08:17:40;;;;;;;7.43;3.20;;;5.00;99.90;;;;;;5094776;28;20031;-44
2024/01/02 08:20:06;;;;;;;11.68;3.80;;;5.00;99.90;;;;;;5095641;28;20019;-43
2024/01/02 08:22:32;;;;;;;10.55;3.85;;;5.00;99.90;;;;;;5088230;28;20110;-41
2024/01/02 08:24:58;;;;;;;12.82;3.58;;;5.00;99.90;;;;;;5085165;28;20115;-45
2024/01/02 08:27:25;;;;;;;6.93;3.15;;;5.00;99.90;;;;;;5085237;28;20028;-46
2024/01/02 08:29:52;;;;;;;11.40;3.50;;;4.90;99.90;;;;;;5086595;28;20012;-46
2024/01/02 08:32:20;;;;;;;10.45;3.58;;;4.90;99.90;;;;;;5086749;28;20024;-43
2024/01/02 08:34:45;;;;;;;8.82;3.20;;;4.90;99.90;;;;;;5102175;28;20020;-44
2024/01/02 08:37:11;;;;;;;7.50;3.53;;;5.00;99.90;;;;;;5105561;28;20491;-42
2024/01/02 08:39:36;;;;;;;9.65;3.30;;;4.90;99.90;;;;;;5098360;28;20031;-43
2024/01/02 08:42:02;;;;;;;7.07;3.20;;;4.90;99.90;;;;;;5106373;28;20035;-44
2024/01/02 08:44:28;;;;;;;5.80;2.78;;;4.90;99.90;;;;;;5106010;28;20038;-41
2024/01/02 08:46:53;;;;;;;10.52;2.72;;;4.90;99.90;;;;;;5105171;28;20012;-43
2024/01/02 08:49:20;;;;;;;11.75;2.97;;;4.90;99.90;;;;;;5107063;28;20024;-42
2024/01/02 08:51:45;;;;;;;17.08;3.38;;;4.90;99.90;;;;;;5106125;28;20030;-43
2024/01/02 08:54:11;;;;;;;7.93;2.55;;;4.90;99.90;;;;;;5103786;28;20028;-44
2024/01/02 08:56:36;;;;;;;6.65;2.85;;;5.00;99.90;;;;;;5101018;28;20592;-43
2024/01/02 08:59:02;;;;;;;5.97;2.15;;;4.90;99.90;;;;;;5089212;28;20273;-43
2024/01/02 09:01:28;;;;;;;6.78;2.78;;;4.90;99.90;;;;;;5094923;28;20124;-43
2024/01/02 09:03:54;;;;;;;7.25;2.38;;;4.90;99.90;;;;;;5096617;28;20097;-43
2024/01/02 09:06:21;;;;;;;7.15;2.28;;;4.90;99.90;;;;;;5106024;28;20028;-43
2024/01/02 09:08:46;;;;;;;9.55;2.00;;;4.80;99.90;;;;;;5093148;28;20082;-43
2024/01/02 09:11:13;;;;;;;5.38;1.90;;;4.90;99.90;;;;;;5095811;28;20028;-43
2024/01/02 09:13:38;;;;;;;3.50;1.88;;;4.90;99.90;;;;;;5093357;28;20016;-44
2024/01/02 09:16:06;;;;;;;3.42;2.03;;;4.90;99.90;;;;;;5092453;28;20034;-45
2024/01/02 09:18:31;;;;;;;6.53;1.88;;;4.80;99.90;;;;;;5099826;28;20379;-43
2024/01/02 09:20:57;;;;;;;4.63;1.92;;;4.80;99.90;;;;;;5106197;28;20024;-44
2024/01/02 09:23:23;;;;;;;4.07;1.65;;;4.80;99.90;;;;;;5103562;28;20477;-41
2024/01/02 09:25:50;;;;;;;3.63;1.95;;;4.80;99.90;;;;;;5105695;28;20024;-42
2024/01/02 09:28:17;;;;;;;4.95;2.15;;;4.80;99.90;;;;;;5106301;28;20068;-41
2024/01/02 09:30:43;;;;;;;2.97;1.70;;;4.80;99.90;;;;;;5107081;28;20022;-41
2024/01/02 09:33:09;;;;;;;6.43;2.63;;;4.80;99.90;;;;;;5106635;28;20119;-43
2024/01/02 09:35:36;;;;;;;4.05;1.67;;;4.80;99.90;;;;;;5105894;28;20098;-42
2024/01/02 09:38:04;;;;;;;9.00;1.55;;;4.90;99.90;;;;;;5105993;28;20047;-42
2024/01/02 09:41:16;;;;;;;2.50;1.45;;;4.90;99.90;;;;;;5107169;28;20366;-42
2024/01/02 09:44:16;;;;;;;3.08;1.48;;;4.80;99.90;;;;;;5036068;28;20239;-42
2024/01/02 09:47:08;;;;;;;1.38;0.90;;;4.80;99.90;;;;;;5095242;28;20703;-41
2024/01/02 09:49:49;;;;;;;2.10;1.00;;;4.80;99.90;;;;;;5106739;28;20038;-43
2024/01/02 09:52:25;;;;;;;1.38;1.00;;;4.80;99.90;;;;;;5106825;28;20244;-43
2024/01/02 09:55:06;;;;;;;2.55;1.00;;;4.90;99.90;;;;;;5106980;28;20112;-46
2024/01/02 09:57:40;;;;;;;5.30;1.70;;;4.90;99.90;;;;;;5107084;28;20092;-41
2024/01/02 10:00:11;;;;;;;2.67;1.42;;;4.90;99.90;;;;;;5107023;28;20376;-43
2024/01/02 10:03:04;;;;;;;1.40;1.00;;;4.90;99.90;;;;;;5086917;28;20028;-44
2024/01/02 10:06:08;;;;;;;3.55;1.23;;;4.80;99.90;;;;;;5107339;28;20023;-42
2024/01/02 10:08:39;;;;;;;4.20;1.50;;;4.90;99.90;;;;;;5105706;28;20046;-42
2024/01/02 10:11:33;;;;;;;3.55;1.27;;;4.90;99.90;;;;;;5105823;28;20031;-43
2024/01/02 10:14:02;;;;;;;6.50;1.50;;;4.90;99.90;;;;;;5086908;28;20065;-42
2024/01/02 10:16:31;;;;;;;3.90;1.30;;;4.80;99.90;;;;;;5090653;28;20034;-44
2024/01/02 10:19:14;;;;;;;1.75;1.33;;;4.80;99.90;;;;;;5090469;28;20036;-42
2024/01/02 10:21:47;;;;;;;1.58;1.13;;;4.80;99.90;;;;;;5090793;28;20054;-42
2024/01/02 10:24:37;;;;;;;3.17;1.40;;;4.80;99.90;;;;;;5090808;28;20020;-43
2024/01/02 10:27:09;;;;;;;1.65;0.85;;;4.80;99.90;;;;;;5090933;28;20020;-45
2024/01/02 10:29:53;;;;;;;3.90;0.95;;;4.80;99.90;;;;;;5089662;28;20404;-42
2024/01/02 10:32:36;;;;;;;1.05;0.77;;;4.80;99.90;;;;;;5090977;28;20016;-46
2024/01/02 10:35:18;;;;;;;1.23;0.90;;;4.80;99.90;;;;;;5090011;28;20031;-46
2024/01/02 10:37:53;;;;;;;1.90;0.85;;;4.90;99.90;;;;;;5089904;28;20326;-44
2024/01/02 10:40:23;;;;;;;3.92;0.80;;;4.90;99.90;;;;;;5091049;28;20428;-44
2024/01/02 10:43:29;;;;;;;1.77;0.80;;;5.00;99.90;;;;;;5091457;28;20034;-44
2024/01/02 10:46:49;;;;;;;0.98;0.73;;;4.90;99.90;;;;;;5091699;28;20400;-44
2024/01/02 10:49:26;;;;;;;1.20;0.70;;;4.90;99.90;;;;;;5009195;28;20032;-43
2024/01/02 10:52:01;;;;;;;1.83;0.63;;;4.90;99.90;;;;;;5007305;28;20036;-44
2024/01/02 10:54:41;;;;;;;1.58;0.80;;;4.90;99.90;;;;;;5059298;28;20035;-43
2024/01/02 10:57:15;;;;;;;4.05;0.82;;;4.90;99.90;;;;;;5090042;28;20054;-43
2024/01/02 11:00:22;;;;;;;0.50;0.50;;;4.90;99.90;;;;;;5091925;28;20051;-42
2024/01/02 11:03:11;;;;;;;1.38;0.80;;;4.90;99.90;;;;;;5009387;28;20020;-42
2024/01/02 11:05:44;;;;;;;0.63;0.60;;;4.90;99.90;;;;;;5084307;28;20060;-41
2024/01/02 11:08:17;;;;;;;1.48;1.08;;;5.00;99.90;;;;;;5091807;28;20020;-46
2024/01/02 11:11:04;;;;;;;1.08;0.80;;;5.00;99.90;;;;;;5091890;28;20151;-44
2024/01/02 11:13:34;;;;;;;1.48;0.70;;;5.10;99.90;;;;;;5092048;28;20024;-43
2024/01/02 11:16:03;;;;;;;1.00;0.80;;;5.10;99.90;;;;;;5092363;28;20031;-42
2024/01/02 11:18:34;;;;;;;1.15;1.00;;;5.00;99.90;;;;;;5091550;28;20016;-42
2024/01/02 11:21:05;;;;;;;1.77;0.95;;;5.10;99.90;;;;;;5091372;28;20568;-45
2024/01/02 11:23:34;;;;;;;1.52;0.90;;;5.10;99.90;;;;;;5090607;28;20044;-43
2024/01/02 11:26:10;;;;;;;1.63;1.00;;;5.20;99.90;;;;;;5091836;28;20027;-46
2024/01/02 11:28:39;;;;;;;1.70;1.05;;;5.20;99.90;;;;;;5091673;28;20388;-42
2024/01/02 11:31:08;;;;;;;1.92;0.90;;;5.10;99.90;;;;;;5092552;28;20027;-40
2024/01/02 11:34:07;;;;;;;1.63;1.10;;;5.20;99.90;;;;;;5091889;28;20317;-45
2024/01/02 11:37:04;;;;;;;2.05;1.05;;;5.20;99.90;;;;;;5091701;28;20036;-41
2024/01/02 11:39:53;;;;;;;2.55;1.30;;;5.20;99.90;;;;;;5050266;28;20036;-42
2024/01/02 11:42:31;;;;;;;1.10;1.00;;;5.30;99.90;;;;;;5092311;28;20049;-41
2024/01/02 11:45:08;;;;;;;1.33;0.90;;;5.30;99.90;;;;;;5092032;28;20028;-42
2024/01/02 11:48:15;;;;;;;4.55;1.30;;;5.20;99.90;;;;;;5090216;28;20028;-43
2024/01/02 11:50:57;;;;;;;1.15;1.00;;;5.20;99.90;;;;;;5086116;28;20033;-42
2024/01/02 11:53:52;;;;;;;1.60;1.23;;;5.30;99.90;;;;;;5090594;28;20028;-42
2024/01/02 11:56:22;;;;;;;3.28;1.55;;;5.30;99.90;;;;;;5088846;28;20053;-42
2024/01/02 11:59:04;;;;;;;;;;;5.30;99.90;;;;;;5091996;28;20028;-44
2024/01/02 12:01:35;;;;;;;1.52;1.10;;;5.40;99.90;;;;;;5091629;28;19957;-42
2024/01/02 12:04:18;;;;;;;1.95;1.25;;;5.40;99.90;;;;;;5092679;28;20455;-43
2024/01/02 12:07:20;;;;;;;3.30;1.20;;;5.40;99.90;;;;;;5091688;28;20022;-45
2024/01/02 12:09:48;;;;;;;1.70;1.20;;;5.50;99.90;;;;;;5076733;28;20035;-43
2024/01/02 12:12:45;;;;;;;1.40;1.05;;;5.50;99.90;;;;;;5093011;28;20031;-42
2024/01/02 12:15:14;;;;;;;2.95;1.85;;;5.60;99.90;;;;;;5093194;28;20099;-44
2024/01/02 12:17:48;;;;;;;2.50;1.55;;;5.60;99.90;;;;;;5091487;28;20030;-44
2024/01/02 12:20:17;;;;;;;1.75;1.40;;;5.60;99.90;;;;;;5090571;28;20546;-43
2024/01/02 12:22:43;;;;;;;3.85;1.77;;;5.70;99.90;;;;;;5090636;28;20102;-42
2024/01/02 12:25:13;;;;;;;2.25;1.45;;;5.60;99.90;;;;;;5092792;28;20008;-42
2024/01/02 12:27:40;;;;;;;4.20;1.50;;;5.60;99.90;;;;;;5091508;28;20524;-42
2024/01/02 12:30:08;;;;;;;2.08;1.58;;;5.70;99.90;;;;;;5092237;28;20034;-49
2024/01/02 12:32:34;;;;;;;3.53;1.50;;;5.70;99.90;;;;;;5092183;28;20016;-43
2024/01/02 12:35:07;;;;;;;3.42;1.75;;;5.70;99.90;;;;;;5091335;28;20042;-42
2024/01/02 12:37:51;;;;;;;2.08;1.70;;;5.70;99.90;;;;;;5084701;28;20310;-43
2024/01/02 12:40:19;;;;;;;2.67;2.08;;;5.80;99.90;;;;;;5093861;28;20051;-42
2024/01/02 12:42:49;;;;;;;3.33;1.73;;;5.80;99.90;;;;;;5091033;28;20024;-42
2024/01/02 12:45:17;;;;;;;2.15;1.85;;;5.80;99.90;;;;;;5094024;28;20036;-42
2024/01/02 12:47:46;;;;;;;2.47;2.00;;;5.80;99.90;;;;;;5091683;28;20103;-41
2024/01/02 12:50:13;;;;;;;4.40;2.78;;;5.80;99.90;;;;;;5093509;28;20118;-41
2024/01/02 12:52:50;;;;;;;4.00;2.83;;;5.90;99.90;;;;;;5092344;28;20467;-41
2024/01/02 12:55:18;;;;;;;5.43;3.00;;;5.80;99.90;;;;;;5092567;28;20089;-41
2024/01/02 12:57:45;;;;;;;3.90;2.97;;;5.90;99.90;;;;;;5090567;28;20028;-42
2024/01/02 13:00:12;;;;;;;4.10;2.50;;;5.90;99.90;;;;;;5093141;28;20533;-43